South Barre, Massachusetts
Current Conditions -  °F | °C
As of 3:54 AM on Thursday 18 Dec 2014 (Local Time) from KORH Reporting Station
Overcast Overcast  
Wind Chill: 25°   Ceiling: 8000
Heat Index: 34°   Visibility: 10mi
Dew Point: 28°   Wind: 14mph
Humidity: 79%   Direction: 290°WNW
Pressure: 29.7"   Gusts: NA
Location:  42.39°N, 72.1°W
Report Text: KORH 180854Z AUTO 29012KT 10SM OVC080 01/M02 A2970 RMK AO2 PK WND 29027/0809 SLP065 T00111022 51004
Loading
Personal Weather Stations






























Interactive Weather Map New forecast layout! Learn more

10-Day Weather Forecast

Advertisements
Track Severe Weather on mobile